sensor_id;sensor_type;location;lat;lon;timestamp;temperature;humidity
23114;DHT22;11726;50.122;8.832;2024-02-23T00:01:06;9.20;99.90
23114;DHT22;11726;50.122;8.832;2024-02-23T00:03:33;9.20;99.90
23114;DHT22;11726;50.122;8.832;2024-02-23T00:06:01;9.20;99.90
23114;DHT22;11726;50.122;8.832;2024-02-23T00:08:28;9.20;99.90
23114;DHT22;11726;50.122;8.832;2024-02-23T00:10:54;9.20;99.90
23114;DHT22;11726;50.122;8.832;2024-02-23T00:13:21;9.10;99.90
23114;DHT22;11726;50.122;8.832;2024-02-23T00:15:48;9.00;99.90
23114;DHT22;11726;50.122;8.832;2024-02-23T00:18:14;9.10;99.90
23114;DHT22;11726;50.122;8.832;2024-02-23T00:20:43;9.00;99.90
23114;DHT22;11726;50.122;8.832;2024-02-23T00:23:10;9.00;99.90
23114;DHT22;11726;50.122;8.832;2024-02-23T00:25:37;9.10;99.90
23114;DHT22;11726;50.122;8.832;2024-02-23T00:28:04;9.00;99.90
23114;DHT22;11726;50.122;8.832;2024-02-23T00:30:31;9.00;99.90
23114;DHT22;11726;50.122;8.832;2024-02-23T00:32:57;9.00;99.90
23114;DHT22;11726;50.122;8.832;2024-02-23T00:35:24;8.90;99.90
23114;DHT22;11726;50.122;8.832;2024-02-23T00:37:51;8.90;99.90
23114;DHT22;11726;50.122;8.832;2024-02-23T00:40:18;8.90;99.90
23114;DHT22;11726;50.122;8.832;2024-02-23T00:42:45;8.90;99.90
23114;DHT22;11726;50.122;8.832;2024-02-23T00:45:12;8.90;99.90
23114;DHT22;11726;50.122;8.832;2024-02-23T00:47:39;8.80;99.90
23114;DHT22;11726;50.122;8.832;2024-02-23T00:50:06;8.90;99.90
23114;DHT22;11726;50.122;8.832;2024-02-23T00:52:32;8.90;99.90
23114;DHT22;11726;50.122;8.832;2024-02-23T00:54:59;8.80;99.90
23114;DHT22;11726;50.122;8.832;2024-02-23T00:57:26;8.80;99.90
23114;DHT22;11726;50.122;8.832;2024-02-23T00:59:54;8.70;99.90
23114;DHT22;11726;50.122;8.832;2024-02-23T01:02:21;8.70;99.90
23114;DHT22;11726;50.122;8.832;2024-02-23T01:04:47;8.70;99.90
23114;DHT22;11726;50.122;8.832;2024-02-23T01:07:14;8.70;99.90
23114;DHT22;11726;50.122;8.832;2024-02-23T01:09:41;8.60;99.90
23114;DHT22;11726;50.122;8.832;2024-02-23T01:12:08;8.60;99.90
23114;DHT22;11726;50.122;8.832;2024-02-23T01:14:35;8.60;99.90
23114;DHT22;11726;50.122;8.832;2024-02-23T01:17:02;8.50;99.90
23114;DHT22;11726;50.122;8.832;2024-02-23T01:19:29;8.40;99.90
23114;DHT22;11726;50.122;8.832;2024-02-23T01:21:55;8.40;99.90
23114;DHT22;11726;50.122;8.832;2024-02-23T01:24:27;8.40;99.90
23114;DHT22;11726;50.122;8.832;2024-02-23T01:26:56;8.40;99.90
23114;DHT22;11726;50.122;8.832;2024-02-23T01:29:25;8.40;99.90
23114;DHT22;11726;50.122;8.832;2024-02-23T01:31:53;8.40;99.90
23114;DHT22;11726;50.122;8.832;2024-02-23T01:34:21;8.40;99.90
23114;DHT22;11726;50.122;8.832;2024-02-23T01:36:48;8.30;99.90
23114;DHT22;11726;50.122;8.832;2024-02-23T01:39:15;8.30;99.90
23114;DHT22;11726;50.122;8.832;2024-02-23T01:41:42;8.20;99.90
23114;DHT22;11726;50.122;8.832;2024-02-23T01:44:11;8.10;99.90
23114;DHT22;11726;50.122;8.832;2024-02-23T01:46:38;8.20;99.90
23114;DHT22;11726;50.122;8.832;2024-02-23T01:49:07;8.10;99.90
23114;DHT22;11726;50.122;8.832;2024-02-23T01:51:35;8.20;99.90
23114;DHT22;11726;50.122;8.832;2024-02-23T01:54:02;8.20;99.90
23114;DHT22;11726;50.122;8.832;2024-02-23T01:56:30;8.10;99.90
23114;DHT22;11726;50.122;8.832;2024-02-23T01:58:58;8.10;99.90
23114;DHT22;11726;50.122;8.832;2024-02-23T02:01:25;8.20;99.90
23114;DHT22;11726;50.122;8.832;2024-02-23T02:03:52;8.00;99.90
23114;DHT22;11726;50.122;8.832;2024-02-23T02:06:19;8.20;99.90
23114;DHT22;11726;50.122;8.832;2024-02-23T02:08:46;8.20;99.90
23114;DHT22;11726;50.122;8.832;2024-02-23T02:11:13;8.20;99.90
23114;DHT22;11726;50.122;8.832;2024-02-23T02:13:40;8.10;99.90
23114;DHT22;11726;50.122;8.832;2024-02-23T02:16:06;8.00;99.90
23114;DHT22;11726;50.122;8.832;2024-02-23T02:18:33;7.80;99.90
23114;DHT22;11726;50.122;8.832;2024-02-23T02:21:00;7.70;99.90
23114;DHT22;11726;50.122;8.832;2024-02-23T02:23:27;7.70;99.90
23114;DHT22;11726;50.122;8.832;2024-02-23T02:25:55;7.70;99.90
23114;DHT22;11726;50.122;8.832;2024-02-23T02:28:23;7.60;99.90
23114;DHT22;11726;50.122;8.832;2024-02-23T02:30:51;7.60;99.90
23114;DHT22;11726;50.122;8.832;2024-02-23T02:33:19;7.50;99.90
23114;DHT22;11726;50.122;8.832;2024-02-23T02:35:47;7.50;99.90
23114;DHT22;11726;50.122;8.832;2024-02-23T02:38:13;7.50;99.90
23114;DHT22;11726;50.122;8.832;2024-02-23T02:40:40;7.40;99.90
23114;DHT22;11726;50.122;8.832;2024-02-23T02:43:07;7.40;99.90
23114;DHT22;11726;50.122;8.832;2024-02-23T02:45:34;7.40;99.90
23114;DHT22;11726;50.122;8.832;2024-02-23T02:48:01;7.40;99.90
23114;DHT22;11726;50.122;8.832;2024-02-23T02:50:29;7.40;99.90
23114;DHT22;11726;50.122;8.832;2024-02-23T02:52:55;7.40;99.90
23114;DHT22;11726;50.122;8.832;2024-02-23T02:55:22;7.40;99.90
23114;DHT22;11726;50.122;8.832;2024-02-23T02:57:49;7.40;99.90
23114;DHT22;11726;50.122;8.832;2024-02-23T03:00:15;7.40;99.90
23114;DHT22;11726;50.122;8.832;2024-02-23T03:02:42;7.30;99.90
23114;DHT22;11726;50.122;8.832;2024-02-23T03:05:09;7.40;99.90
23114;DHT22;11726;50.122;8.832;2024-02-23T03:07:36;7.30;99.90
23114;DHT22;11726;50.122;8.832;2024-02-23T03:10:03;7.30;99.90
23114;DHT22;11726;50.122;8.832;2024-02-23T03:12:29;7.40;99.90
23114;DHT22;11726;50.122;8.832;2024-02-23T03:14:56;7.30;99.90
23114;DHT22;11726;50.122;8.832;2024-02-23T03:17:23;7.30;99.90
23114;DHT22;11726;50.122;8.832;2024-02-23T03:19:50;7.20;99.90
23114;DHT22;11726;50.122;8.832;2024-02-23T03:22:17;7.20;99.90
23114;DHT22;11726;50.122;8.832;2024-02-23T03:24:43;7.10;99.90
23114;DHT22;11726;50.122;8.832;2024-02-23T03:27:10;7.10;99.90
23114;DHT22;11726;50.122;8.832;2024-02-23T03:29:38;7.00;99.90
23114;DHT22;11726;50.122;8.832;2024-02-23T03:32:05;7.00;99.90
23114;DHT22;11726;50.122;8.832;2024-02-23T03:34:32;7.00;99.90
23114;DHT22;11726;50.122;8.832;2024-02-23T03:36:59;7.00;99.90
23114;DHT22;11726;50.122;8.832;2024-02-23T03:39:28;7.00;99.90
23114;DHT22;11726;50.122;8.832;2024-02-23T03:41:55;7.00;99.90
23114;DHT22;11726;50.122;8.832;2024-02-23T03:44:22;7.00;99.90
23114;DHT22;11726;50.122;8.832;2024-02-23T03:46:49;6.90;99.90
23114;DHT22;11726;50.122;8.832;2024-02-23T03:49:16;6.90;99.90
23114;DHT22;11726;50.122;8.832;2024-02-23T03:51:43;6.90;99.90
23114;DHT22;11726;50.122;8.832;2024-02-23T03:54:09;6.80;99.90
23114;DHT22;11726;50.122;8.832;2024-02-23T03:56:43;6.80;99.90
23114;DHT22;11726;50.122;8.832;2024-02-23T03:59:09;6.80;99.90
23114;DHT22;11726;50.122;8.832;2024-02-23T04:01:40;6.80;99.90
23114;DHT22;11726;50.122;8.832;2024-02-23T04:04:07;6.80;99.90
23114;DHT22;11726;50.122;8.832;2024-02-23T04:06:34;6.70;99.90
23114;DHT22;11726;50.122;8.832;2024-02-23T04:09:02;6.70;99.90
23114;DHT22;11726;50.122;8.832;2024-02-23T04:11:31;6.60;99.90
23114;DHT22;11726;50.122;8.832;2024-02-23T04:13:59;6.50;99.90
23114;DHT22;11726;50.122;8.832;2024-02-23T04:16:27;6.60;99.90
23114;DHT22;11726;50.122;8.832;2024-02-23T04:18:54;6.50;99.90
23114;DHT22;11726;50.122;8.832;2024-02-23T04:21:21;6.50;99.90
23114;DHT22;11726;50.122;8.832;2024-02-23T04:23:48;6.40;99.90
23114;DHT22;11726;50.122;8.832;2024-02-23T04:26:14;6.40;99.90
23114;DHT22;11726;50.122;8.832;2024-02-23T04:28:41;6.40;99.90
23114;DHT22;11726;50.122;8.832;2024-02-23T04:31:09;6.40;99.90
23114;DHT22;11726;50.122;8.832;2024-02-23T04:33:36;6.40;99.90
23114;DHT22;11726;50.122;8.832;2024-02-23T04:36:04;6.40;99.90
23114;DHT22;11726;50.122;8.832;2024-02-23T04:38:32;6.40;99.90
23114;DHT22;11726;50.122;8.832;2024-02-23T04:41:02;6.40;99.90
23114;DHT22;11726;50.122;8.832;2024-02-23T04:43:29;6.40;99.90
23114;DHT22;11726;50.122;8.832;2024-02-23T04:45:56;6.50;99.90
23114;DHT22;11726;50.122;8.832;2024-02-23T04:48:23;6.50;99.90
23114;DHT22;11726;50.122;8.832;2024-02-23T04:50:49;6.50;99.90
23114;DHT22;11726;50.122;8.832;2024-02-23T04:53:16;6.50;99.90
23114;DHT22;11726;50.122;8.832;2024-02-23T04:55:43;6.40;99.90
23114;DHT22;11726;50.122;8.832;2024-02-23T04:58:09;6.50;99.90
23114;DHT22;11726;50.122;8.832;2024-02-23T05:00:38;6.50;99.90
23114;DHT22;11726;50.122;8.832;2024-02-23T05:03:05;6.40;99.90
23114;DHT22;11726;50.122;8.832;2024-02-23T05:05:35;6.50;99.90
23114;DHT22;11726;50.122;8.832;2024-02-23T05:08:02;6.50;99.90
23114;DHT22;11726;50.122;8.832;2024-02-23T05:10:29;6.40;99.90
23114;DHT22;11726;50.122;8.832;2024-02-23T05:12:56;6.40;99.90
23114;DHT22;11726;50.122;8.832;2024-02-23T05:15:22;6.40;99.90
23114;DHT22;11726;50.122;8.832;2024-02-23T05:17:49;6.30;99.90
23114;DHT22;11726;50.122;8.832;2024-02-23T05:20:16;6.20;99.90
23114;DHT22;11726;50.122;8.832;2024-02-23T05:22:43;6.20;99.90
23114;DHT22;11726;50.122;8.832;2024-02-23T05:25:09;6.20;99.90
23114;DHT22;11726;50.122;8.832;2024-02-23T05:27:36;6.20;99.90
23114;DHT22;11726;50.122;8.832;2024-02-23T05:30:03;6.20;99.90
23114;DHT22;11726;50.122;8.832;2024-02-23T05:32:30;6.20;99.90
23114;DHT22;11726;50.122;8.832;2024-02-23T05:34:57;6.20;99.90
23114;DHT22;11726;50.122;8.832;2024-02-23T05:37:24;6.20;99.90
23114;DHT22;11726;50.122;8.832;2024-02-23T05:39:51;6.20;99.90
23114;DHT22;11726;50.122;8.832;2024-02-23T05:42:18;6.10;99.90
23114;DHT22;11726;50.122;8.832;2024-02-23T05:44:45;6.10;99.90
23114;DHT22;11726;50.122;8.832;2024-02-23T05:47:12;6.10;99.90
23114;DHT22;11726;50.122;8.832;2024-02-23T05:49:41;6.00;99.90
23114;DHT22;11726;50.122;8.832;2024-02-23T05:52:08;6.10;99.90
23114;DHT22;11726;50.122;8.832;2024-02-23T05:54:34;6.10;99.90
23114;DHT22;11726;50.122;8.832;2024-02-23T05:57:01;6.10;99.90
23114;DHT22;11726;50.122;8.832;2024-02-23T05:59:29;6.10;99.90
23114;DHT22;11726;50.122;8.832;2024-02-23T06:01:56;6.10;99.90
23114;DHT22;11726;50.122;8.832;2024-02-23T06:04:25;6.10;99.90
23114;DHT22;11726;50.122;8.832;2024-02-23T06:06:53;6.20;99.90
23114;DHT22;11726;50.122;8.832;2024-02-23T06:09:20;6.20;99.90
23114;DHT22;11726;50.122;8.832;2024-02-23T06:11:47;6.20;99.90
23114;DHT22;11726;50.122;8.832;2024-02-23T06:14:14;6.10;99.90
23114;DHT22;11726;50.122;8.832;2024-02-23T06:16:41;6.20;99.90
23114;DHT22;11726;50.122;8.832;2024-02-23T06:19:08;6.20;99.90
23114;DHT22;11726;50.122;8.832;2024-02-23T06:21:36;6.30;99.90
23114;DHT22;11726;50.122;8.832;2024-02-23T06:24:03;6.30;99.90
23114;DHT22;11726;50.122;8.832;2024-02-23T06:26:31;6.30;99.90
23114;DHT22;11726;50.122;8.832;2024-02-23T06:28:58;6.30;99.90
23114;DHT22;11726;50.122;8.832;2024-02-23T06:31:25;6.30;99.90
23114;DHT22;11726;50.122;8.832;2024-02-23T06:33:52;6.30;99.90
23114;DHT22;11726;50.122;8.832;2024-02-23T06:36:19;6.30;99.90
23114;DHT22;11726;50.122;8.832;2024-02-23T06:38:45;6.30;99.90
23114;DHT22;11726;50.122;8.832;2024-02-23T06:41:13;6.40;99.90
23114;DHT22;11726;50.122;8.832;2024-02-23T06:43:40;6.40;99.90
23114;DHT22;11726;50.122;8.832;2024-02-23T06:46:07;6.40;99.90
23114;DHT22;11726;50.122;8.832;2024-02-23T06:48:38;6.50;99.90
23114;DHT22;11726;50.122;8.832;2024-02-23T06:51:06;6.40;99.90
23114;DHT22;11726;50.122;8.832;2024-02-23T06:53:35;6.50;99.90
23114;DHT22;11726;50.122;8.832;2024-02-23T06:56:02;6.50;99.90
23114;DHT22;11726;50.122;8.832;2024-02-23T06:58:30;6.50;99.90
23114;DHT22;11726;50.122;8.832;2024-02-23T07:00:56;6.50;99.90
23114;DHT22;11726;50.122;8.832;2024-02-23T07:03:23;6.50;99.90
23114;DHT22;11726;50.122;8.832;2024-02-23T07:05:50;6.60;99.90
23114;DHT22;11726;50.122;8.832;2024-02-23T07:08:17;6.60;99.90
23114;DHT22;11726;50.122;8.832;2024-02-23T07:10:44;6.70;99.90
23114;DHT22;11726;50.122;8.832;2024-02-23T07:13:11;6.70;99.90
23114;DHT22;11726;50.122;8.832;2024-02-23T07:15:38;6.80;99.90
23114;DHT22;11726;50.122;8.832;2024-02-23T07:18:05;6.80;99.90
23114;DHT22;11726;50.122;8.832;2024-02-23T07:20:32;6.80;99.90
23114;DHT22;11726;50.122;8.832;2024-02-23T07:22:58;6.90;99.90
23114;DHT22;11726;50.122;8.832;2024-02-23T07:25:25;6.90;99.90
23114;DHT22;11726;50.122;8.832;2024-02-23T07:27:52;6.90;99.90
23114;DHT22;11726;50.122;8.832;2024-02-23T07:30:19;6.90;99.90
23114;DHT22;11726;50.122;8.832;2024-02-23T07:32:46;6.90;99.90
23114;DHT22;11726;50.122;8.832;2024-02-23T07:35:19;6.90;99.90
23114;DHT22;11726;50.122;8.832;2024-02-23T07:37:46;7.00;99.90
23114;DHT22;11726;50.122;8.832;2024-02-23T07:40:12;7.00;99.90
23114;DHT22;11726;50.122;8.832;2024-02-23T07:42:39;7.00;99.90
23114;DHT22;11726;50.122;8.832;2024-02-23T07:45:07;7.00;99.90
23114;DHT22;11726;50.122;8.832;2024-02-23T07:47:35;6.90;99.90
23114;DHT22;11726;50.122;8.832;2024-02-23T07:50:02;6.90;99.90
23114;DHT22;11726;50.122;8.832;2024-02-23T07:52:29;6.80;99.90
23114;DHT22;11726;50.122;8.832;2024-02-23T07:54:56;6.90;99.90
23114;DHT22;11726;50.122;8.832;2024-02-23T07:57:23;7.00;99.90
23114;DHT22;11726;50.122;8.832;2024-02-23T07:59:50;7.00;99.90
23114;DHT22;11726;50.122;8.832;2024-02-23T08:02:16;7.00;99.90
23114;DHT22;11726;50.122;8.832;2024-02-23T08:04:43;7.10;99.90
23114;DHT22;11726;50.122;8.832;2024-02-23T08:07:10;7.20;99.90
23114;DHT22;11726;50.122;8.832;2024-02-23T08:09:37;7.40;99.90
23114;DHT22;11726;50.122;8.832;2024-02-23T08:12:04;7.50;99.90
23114;DHT22;11726;50.122;8.832;2024-02-23T08:14:31;7.70;99.90
23114;DHT22;11726;50.122;8.832;2024-02-23T08:16:59;7.70;99.90
23114;DHT22;11726;50.122;8.832;2024-02-23T08:19:26;7.80;99.90
23114;DHT22;11726;50.122;8.832;2024-02-23T08:21:52;7.80;99.90
23114;DHT22;11726;50.122;8.832;2024-02-23T08:24:19;7.80;99.90
23114;DHT22;11726;50.122;8.832;2024-02-23T08:26:46;7.70;99.90
23114;DHT22;11726;50.122;8.832;2024-02-23T08:29:12;7.80;99.90
23114;DHT22;11726;50.122;8.832;2024-02-23T08:31:39;7.80;99.90
23114;DHT22;11726;50.122;8.832;2024-02-23T08:34:08;7.80;99.90
23114;DHT22;11726;50.122;8.832;2024-02-23T08:36:35;7.90;99.90
23114;DHT22;11726;50.122;8.832;2024-02-23T08:39:02;7.90;99.90
23114;DHT22;11726;50.122;8.832;2024-02-23T08:41:29;7.90;99.90
23114;DHT22;11726;50.122;8.832;2024-02-23T08:43:56;7.80;99.90
23114;DHT22;11726;50.122;8.832;2024-02-23T08:46:23;7.80;99.90
23114;DHT22;11726;50.122;8.832;2024-02-23T08:48:49;7.80;99.90
23114;DHT22;11726;50.122;8.832;2024-02-23T08:51:16;7.80;99.90
23114;DHT22;11726;50.122;8.832;2024-02-23T08:53:43;7.80;99.90
23114;DHT22;11726;50.122;8.832;2024-02-23T08:56:11;7.80;99.90
23114;DHT22;11726;50.122;8.832;2024-02-23T08:58:38;7.80;99.90
23114;DHT22;11726;50.122;8.832;2024-02-23T09:01:05;7.70;99.90
23114;DHT22;11726;50.122;8.832;2024-02-23T09:03:32;7.80;99.90
23114;DHT22;11726;50.122;8.832;2024-02-23T09:05:58;7.70;99.90
23114;DHT22;11726;50.122;8.832;2024-02-23T09:08:25;7.70;99.90
23114;DHT22;11726;50.122;8.832;2024-02-23T09:10:52;7.80;99.90
23114;DHT22;11726;50.122;8.832;2024-02-23T09:13:19;7.80;99.90
23114;DHT22;11726;50.122;8.832;2024-02-23T09:15:46;7.80;99.90
23114;DHT22;11726;50.122;8.832;2024-02-23T09:18:13;7.80;99.90
23114;DHT22;11726;50.122;8.832;2024-02-23T09:20:39;7.70;99.90
23114;DHT22;11726;50.122;8.832;2024-02-23T09:23:06;7.70;99.90
23114;DHT22;11726;50.122;8.832;2024-02-23T09:25:33;7.70;99.90
23114;DHT22;11726;50.122;8.832;2024-02-23T09:28:00;7.80;99.90
23114;DHT22;11726;50.122;8.832;2024-02-23T09:30:26;7.80;99.90
23114;DHT22;11726;50.122;8.832;2024-02-23T09:32:53;7.80;99.90
23114;DHT22;11726;50.122;8.832;2024-02-23T09:35:21;7.90;99.90
23114;DHT22;11726;50.122;8.832;2024-02-23T09:37:48;7.90;99.90
23114;DHT22;11726;50.122;8.832;2024-02-23T09:40:15;7.90;99.90
23114;DHT22;11726;50.122;8.832;2024-02-23T09:42:43;7.90;99.90
23114;DHT22;11726;50.122;8.832;2024-02-23T09:45:15;8.00;99.90
23114;DHT22;11726;50.122;8.832;2024-02-23T09:47:42;8.00;99.90
23114;DHT22;11726;50.122;8.832;2024-02-23T09:50:10;8.00;99.90
23114;DHT22;11726;50.122;8.832;2024-02-23T09:52:38;8.00;99.90
23114;DHT22;11726;50.122;8.832;2024-02-23T09:55:05;7.90;99.90
23114;DHT22;11726;50.122;8.832;2024-02-23T09:57:33;7.90;99.90
23114;DHT22;11726;50.122;8.832;2024-02-23T10:00:01;8.00;99.90
23114;DHT22;11726;50.122;8.832;2024-02-23T10:02:32;8.00;99.90
23114;DHT22;11726;50.122;8.832;2024-02-23T10:05:00;8.10;99.90
23114;DHT22;11726;50.122;8.832;2024-02-23T10:07:27;8.20;99.90
23114;DHT22;11726;50.122;8.832;2024-02-23T10:09:54;8.20;99.90
23114;DHT22;11726;50.122;8.832;2024-02-23T10:12:22;8.30;99.90
23114;DHT22;11726;50.122;8.832;2024-02-23T10:14:48;8.20;99.90
23114;DHT22;11726;50.122;8.832;2024-02-23T10:17:15;8.30;99.90
23114;DHT22;11726;50.122;8.832;2024-02-23T10:19:43;8.40;99.90
23114;DHT22;11726;50.122;8.832;2024-02-23T10:22:10;8.50;99.90
23114;DHT22;11726;50.122;8.832;2024-02-23T10:24:37;8.50;99.90
23114;DHT22;11726;50.122;8.832;2024-02-23T10:27:04;8.50;99.90
23114;DHT22;11726;50.122;8.832;2024-02-23T10:29:30;8.50;99.90
23114;DHT22;11726;50.122;8.832;2024-02-23T10:31:57;8.60;99.90
23114;DHT22;11726;50.122;8.832;2024-02-23T10:34:27;8.70;99.90
23114;DHT22;11726;50.122;8.832;2024-02-23T10:36:55;8.70;99.90
23114;DHT22;11726;50.122;8.832;2024-02-23T10:39:24;8.90;99.90
23114;DHT22;11726;50.122;8.832;2024-02-23T10:42:02;9.10;99.90
23114;DHT22;11726;50.122;8.832;2024-02-23T10:44:30;9.30;99.90
23114;DHT22;11726;50.122;8.832;2024-02-23T10:46:58;9.60;99.90
23114;DHT22;11726;50.122;8.832;2024-02-23T10:49:26;9.90;99.90
23114;DHT22;11726;50.122;8.832;2024-02-23T10:51:54;10.20;99.90
23114;DHT22;11726;50.122;8.832;2024-02-23T10:54:22;10.40;99.90
23114;DHT22;11726;50.122;8.832;2024-02-23T10:56:50;10.40;99.90
23114;DHT22;11726;50.122;8.832;2024-02-23T10:59:18;9.90;99.90
23114;DHT22;11726;50.122;8.832;2024-02-23T11:01:50;9.80;99.90
23114;DHT22;11726;50.122;8.832;2024-02-23T11:04:17;9.60;99.90
23114;DHT22;11726;50.122;8.832;2024-02-23T11:06:52;9.50;99.90
23114;DHT22;11726;50.122;8.832;2024-02-23T11:09:21;9.50;99.90
23114;DHT22;11726;50.122;8.832;2024-02-23T11:11:56;9.70;99.90
23114;DHT22;11726;50.122;8.832;2024-02-23T11:14:32;9.60;99.90
23114;DHT22;11726;50.122;8.832;2024-02-23T11:17:01;9.70;99.90
23114;DHT22;11726;50.122;8.832;2024-02-23T11:19:35;9.90;99.90
23114;DHT22;11726;50.122;8.832;2024-02-23T11:22:03;9.90;99.90
23114;DHT22;11726;50.122;8.832;2024-02-23T11:24:31;9.80;99.90
23114;DHT22;11726;50.122;8.832;2024-02-23T11:26:59;9.70;99.90
23114;DHT22;11726;50.122;8.832;2024-02-23T11:29:28;9.60;99.90
23114;DHT22;11726;50.122;8.832;2024-02-23T11:31:55;9.30;99.90
23114;DHT22;11726;50.122;8.832;2024-02-23T11:34:27;9.40;99.90
23114;DHT22;11726;50.122;8.832;2024-02-23T11:36:54;9.50;99.90
23114;DHT22;11726;50.122;8.832;2024-02-23T11:39:22;9.40;99.90
23114;DHT22;11726;50.122;8.832;2024-02-23T11:42:07;9.30;99.90
23114;DHT22;11726;50.122;8.832;2024-02-23T11:44:37;9.40;99.90
23114;DHT22;11726;50.122;8.832;2024-02-23T11:47:04;9.40;99.90
23114;DHT22;11726;50.122;8.832;2024-02-23T11:49:31;9.20;99.90
23114;DHT22;11726;50.122;8.832;2024-02-23T11:51:58;9.20;99.90
23114;DHT22;11726;50.122;8.832;2024-02-23T11:54:25;9.30;99.90
23114;DHT22;11726;50.122;8.832;2024-02-23T11:56:52;9.30;99.90
23114;DHT22;11726;50.122;8.832;2024-02-23T11:59:20;9.10;99.90
23114;DHT22;11726;50.122;8.832;2024-02-23T12:01:47;9.00;99.90
23114;DHT22;11726;50.122;8.832;2024-02-23T12:04:14;8.90;99.90
23114;DHT22;11726;50.122;8.832;2024-02-23T12:06:42;8.90;99.90
23114;DHT22;11726;50.122;8.832;2024-02-23T12:09:09;9.00;99.90
23114;DHT22;11726;50.122;8.832;2024-02-23T12:11:38;9.30;99.90
23114;DHT22;11726;50.122;8.832;2024-02-23T12:14:05;9.50;99.90
23114;DHT22;11726;50.122;8.832;2024-02-23T12:16:35;9.90;99.90
23114;DHT22;11726;50.122;8.832;2024-02-23T12:19:03;9.80;99.90
23114;DHT22;11726;50.122;8.832;2024-02-23T12:21:30;9.70;99.90
23114;DHT22;11726;50.122;8.832;2024-02-23T12:23:56;9.70;99.90
23114;DHT22;11726;50.122;8.832;2024-02-23T12:26:23;9.70;99.90
23114;DHT22;11726;50.122;8.832;2024-02-23T12:28:50;9.70;99.90
23114;DHT22;11726;50.122;8.832;2024-02-23T12:31:23;9.90;99.90
23114;DHT22;11726;50.122;8.832;2024-02-23T12:33:51;10.00;99.90
23114;DHT22;11726;50.122;8.832;2024-02-23T12:36:18;10.20;99.90
23114;DHT22;11726;50.122;8.832;2024-02-23T12:38:44;10.30;99.90
23114;DHT22;11726;50.122;8.832;2024-02-23T12:41:11;10.40;99.90
23114;DHT22;11726;50.122;8.832;2024-02-23T12:43:38;10.30;99.90
23114;DHT22;11726;50.122;8.832;2024-02-23T12:46:08;10.20;99.90
23114;DHT22;11726;50.122;8.832;2024-02-23T12:48:35;10.00;99.90
23114;DHT22;11726;50.122;8.832;2024-02-23T12:51:03;9.90;99.90
23114;DHT22;11726;50.122;8.832;2024-02-23T12:53:37;10.00;99.90
23114;DHT22;11726;50.122;8.832;2024-02-23T12:56:09;10.30;99.90
23114;DHT22;11726;50.122;8.832;2024-02-23T12:58:37;10.80;99.90
23114;DHT22;11726;50.122;8.832;2024-02-23T13:01:04;11.50;99.90
23114;DHT22;11726;50.122;8.832;2024-02-23T13:03:36;11.50;99.90
23114;DHT22;11726;50.122;8.832;2024-02-23T13:06:04;11.80;99.90
23114;DHT22;11726;50.122;8.832;2024-02-23T13:08:31;11.60;99.90
23114;DHT22;11726;50.122;8.832;2024-02-23T13:10:58;11.20;99.90
23114;DHT22;11726;50.122;8.832;2024-02-23T13:13:25;10.80;99.90
23114;DHT22;11726;50.122;8.832;2024-02-23T13:15:53;10.40;99.90
23114;DHT22;11726;50.122;8.832;2024-02-23T13:18:20;10.20;99.90
23114;DHT22;11726;50.122;8.832;2024-02-23T13:20:47;10.10;99.90
23114;DHT22;11726;50.122;8.832;2024-02-23T13:23:13;10.00;99.90
23114;DHT22;11726;50.122;8.832;2024-02-23T13:25:43;10.00;99.90
23114;DHT22;11726;50.122;8.832;2024-02-23T13:28:10;9.90;99.90
23114;DHT22;11726;50.122;8.832;2024-02-23T13:30:37;9.70;99.90
23114;DHT22;11726;50.122;8.832;2024-02-23T13:33:04;9.60;99.90
23114;DHT22;11726;50.122;8.832;2024-02-23T13:35:31;9.60;99.90
23114;DHT22;11726;50.122;8.832;2024-02-23T13:37:59;9.50;99.90
23114;DHT22;11726;50.122;8.832;2024-02-23T13:40:26;9.60;99.90
23114;DHT22;11726;50.122;8.832;2024-02-23T13:42:52;9.60;99.90
23114;DHT22;11726;50.122;8.832;2024-02-23T13:45:20;9.60;99.90
23114;DHT22;11726;50.122;8.832;2024-02-23T13:48:01;9.60;99.90
23114;DHT22;11726;50.122;8.832;2024-02-23T13:50:29;9.60;99.90
23114;DHT22;11726;50.122;8.832;2024-02-23T13:52:56;9.60;99.90
23114;DHT22;11726;50.122;8.832;2024-02-23T13:55:23;9.60;99.90
23114;DHT22;11726;50.122;8.832;2024-02-23T13:57:50;9.90;99.90
23114;DHT22;11726;50.122;8.832;2024-02-23T14:00:18;10.80;99.90
23114;DHT22;11726;50.122;8.832;2024-02-23T14:02:46;11.30;99.90
23114;DHT22;11726;50.122;8.832;2024-02-23T14:05:13;11.20;99.90
23114;DHT22;11726;50.122;8.832;2024-02-23T14:07:40;10.90;99.90
23114;DHT22;11726;50.122;8.832;2024-02-23T14:10:07;11.40;99.90
23114;DHT22;11726;50.122;8.832;2024-02-23T14:12:34;11.40;99.90
23114;DHT22;11726;50.122;8.832;2024-02-23T14:15:01;11.30;99.90
23114;DHT22;11726;50.122;8.832;2024-02-23T14:17:28;11.40;99.90
23114;DHT22;11726;50.122;8.832;2024-02-23T14:19:55;12.20;99.90
23114;DHT22;11726;50.122;8.832;2024-02-23T14:22:22;12.10;99.90
23114;DHT22;11726;50.122;8.832;2024-02-23T14:24:49;11.80;99.90
23114;DHT22;11726;50.122;8.832;2024-02-23T14:27:15;11.40;99.90
23114;DHT22;11726;50.122;8.832;2024-02-23T14:29:42;11.30;99.90
23114;DHT22;11726;50.122;8.832;2024-02-23T14:32:09;11.10;99.90
23114;DHT22;11726;50.122;8.832;2024-02-23T14:34:36;11.00;99.90
23114;DHT22;11726;50.122;8.832;2024-02-23T14:37:03;10.80;99.90
23114;DHT22;11726;50.122;8.832;2024-02-23T14:39:30;10.80;99.90
23114;DHT22;11726;50.122;8.832;2024-02-23T14:41:57;10.80;99.90
23114;DHT22;11726;50.122;8.832;2024-02-23T14:44:24;10.70;99.90
23114;DHT22;11726;50.122;8.832;2024-02-23T14:46:50;10.60;99.90
23114;DHT22;11726;50.122;8.832;2024-02-23T14:49:17;10.40;99.90
23114;DHT22;11726;50.122;8.832;2024-02-23T14:51:44;10.40;99.90
23114;DHT22;11726;50.122;8.832;2024-02-23T14:54:12;10.40;99.90
23114;DHT22;11726;50.122;8.832;2024-02-23T14:56:39;10.30;99.90
23114;DHT22;11726;50.122;8.832;2024-02-23T14:59:09;10.20;99.90
23114;DHT22;11726;50.122;8.832;2024-02-23T15:01:39;10.10;99.90
23114;DHT22;11726;50.122;8.832;2024-02-23T15:04:09;10.10;99.90
23114;DHT22;11726;50.122;8.832;2024-02-23T15:06:36;10.10;99.90
23114;DHT22;11726;50.122;8.832;2024-02-23T15:09:04;9.70;99.90
23114;DHT22;11726;50.122;8.832;2024-02-23T15:11:31;9.50;99.90
23114;DHT22;11726;50.122;8.832;2024-02-23T15:13:58;9.70;99.90
23114;DHT22;11726;50.122;8.832;2024-02-23T15:16:27;10.10;99.90
23114;DHT22;11726;50.122;8.832;2024-02-23T15:18:54;10.50;99.90
23114;DHT22;11726;50.122;8.832;2024-02-23T15:21:21;10.60;99.90
23114;DHT22;11726;50.122;8.832;2024-02-23T15:23:47;10.10;99.90
23114;DHT22;11726;50.122;8.832;2024-02-23T15:26:15;9.70;99.90
23114;DHT22;11726;50.122;8.832;2024-02-23T15:28:41;9.50;99.90
23114;DHT22;11726;50.122;8.832;2024-02-23T15:31:08;9.50;99.90
23114;DHT22;11726;50.122;8.832;2024-02-23T15:33:35;9.90;99.90
23114;DHT22;11726;50.122;8.832;2024-02-23T15:36:06;10.30;99.90
23114;DHT22;11726;50.122;8.832;2024-02-23T15:38:35;10.70;99.90
23114;DHT22;11726;50.122;8.832;2024-02-23T15:41:03;11.00;99.90
23114;DHT22;11726;50.122;8.832;2024-02-23T15:43:30;11.40;99.90